sensor_id;sensor_type;location;lat;lon;timestamp;P1;durP1;ratioP1;P2;durP2;ratioP2
815;SDS011;25928;51.062;13.752;2023-03-03T00:00:42;55.50;;;30.70;;
815;SDS011;25928;51.062;13.752;2023-03-03T00:03:09;52.50;;;32.33;;
815;SDS011;25928;51.062;13.752;2023-03-03T00:05:38;54.67;;;30.40;;
815;SDS011;25928;51.062;13.752;2023-03-03T00:08:04;61.17;;;31.93;;
815;SDS011;25928;51.062;13.752;2023-03-03T00:10:30;53.73;;;32.63;;
815;SDS011;25928;51.062;13.752;2023-03-03T00:12:55;56.83;;;33.50;;
815;SDS011;25928;51.062;13.752;2023-03-03T00:15:22;58.83;;;32.10;;
815;SDS011;25928;51.062;13.752;2023-03-03T00:17:49;61.63;;;30.80;;
815;SDS011;25928;51.062;13.752;2023-03-03T00:22:54;53.83;;;31.70;;
815;SDS011;25928;51.062;13.752;2023-03-03T00:28:06;56.60;;;32.00;;
815;SDS011;25928;51.062;13.752;2023-03-03T00:30:42;62.07;;;34.40;;
815;SDS011;25928;51.062;13.752;2023-03-03T00:33:23;56.50;;;32.47;;
815;SDS011;25928;51.062;13.752;2023-03-03T00:38:45;63.50;;;33.87;;
815;SDS011;25928;51.062;13.752;2023-03-03T00:41:25;58.10;;;30.93;;
815;SDS011;25928;51.062;13.752;2023-03-03T00:43:51;58.90;;;33.03;;
815;SDS011;25928;51.062;13.752;2023-03-03T00:46:18;58.20;;;32.10;;
815;SDS011;25928;51.062;13.752;2023-03-03T00:48:46;55.03;;;33.50;;
815;SDS011;25928;51.062;13.752;2023-03-03T00:51:29;58.93;;;31.80;;
815;SDS011;25928;51.062;13.752;2023-03-03T00:53:57;50.83;;;28.47;;
815;SDS011;25928;51.062;13.752;2023-03-03T00:56:23;55.30;;;32.80;;
815;SDS011;25928;51.062;13.752;2023-03-03T00:58:49;57.67;;;30.77;;
815;SDS011;25928;51.062;13.752;2023-03-03T01:01:15;57.13;;;31.33;;
815;SDS011;25928;51.062;13.752;2023-03-03T01:03:42;54.57;;;32.10;;
815;SDS011;25928;51.062;13.752;2023-03-03T01:06:08;55.43;;;30.80;;
815;SDS011;25928;51.062;13.752;2023-03-03T01:08:35;57.93;;;30.37;;
815;SDS011;25928;51.062;13.752;2023-03-03T01:11:06;50.20;;;30.40;;
815;SDS011;25928;51.062;13.752;2023-03-03T01:13:35;56.10;;;30.67;;
815;SDS011;25928;51.062;13.752;2023-03-03T01:16:04;51.10;;;29.27;;
815;SDS011;25928;51.062;13.752;2023-03-03T01:18:30;55.87;;;30.80;;
815;SDS011;25928;51.062;13.752;2023-03-03T01:20:56;54.00;;;29.70;;
815;SDS011;25928;51.062;13.752;2023-03-03T01:23:22;61.50;;;33.37;;
815;SDS011;25928;51.062;13.752;2023-03-03T01:25:47;56.33;;;30.57;;
815;SDS011;25928;51.062;13.752;2023-03-03T01:28:13;61.87;;;30.53;;
815;SDS011;25928;51.062;13.752;2023-03-03T01:30:39;61.77;;;34.77;;
815;SDS011;25928;51.062;13.752;2023-03-03T01:33:04;63.87;;;32.97;;
815;SDS011;25928;51.062;13.752;2023-03-03T01:35:30;59.93;;;33.77;;
815;SDS011;25928;51.062;13.752;2023-03-03T01:37:56;56.87;;;30.90;;
815;SDS011;25928;51.062;13.752;2023-03-03T01:40:24;72.73;;;34.40;;
815;SDS011;25928;51.062;13.752;2023-03-03T01:42:51;59.30;;;31.97;;
815;SDS011;25928;51.062;13.752;2023-03-03T01:45:18;58.10;;;30.73;;
815;SDS011;25928;51.062;13.752;2023-03-03T01:47:57;63.93;;;32.97;;
815;SDS011;25928;51.062;13.752;2023-03-03T01:50:27;66.67;;;33.63;;
815;SDS011;25928;51.062;13.752;2023-03-03T01:53:05;68.70;;;32.90;;
815;SDS011;25928;51.062;13.752;2023-03-03T01:55:38;60.93;;;30.70;;
815;SDS011;25928;51.062;13.752;2023-03-03T01:58:07;59.53;;;31.77;;
815;SDS011;25928;51.062;13.752;2023-03-03T02:00:45;57.30;;;30.57;;
815;SDS011;25928;51.062;13.752;2023-03-03T02:03:16;53.60;;;30.90;;
815;SDS011;25928;51.062;13.752;2023-03-03T02:05:44;64.00;;;31.40;;
815;SDS011;25928;51.062;13.752;2023-03-03T02:08:10;61.77;;;31.30;;
815;SDS011;25928;51.062;13.752;2023-03-03T02:10:40;59.90;;;32.00;;
815;SDS011;25928;51.062;13.752;2023-03-03T02:13:07;64.63;;;33.20;;
815;SDS011;25928;51.062;13.752;2023-03-03T02:15:33;64.43;;;33.63;;
815;SDS011;25928;51.062;13.752;2023-03-03T02:18:04;64.33;;;32.67;;
815;SDS011;25928;51.062;13.752;2023-03-03T02:20:39;52.93;;;29.73;;
815;SDS011;25928;51.062;13.752;2023-03-03T02:28:31;56.90;;;32.20;;
815;SDS011;25928;51.062;13.752;2023-03-03T02:30:59;59.50;;;32.00;;
815;SDS011;25928;51.062;13.752;2023-03-03T02:33:26;60.10;;;28.77;;
815;SDS011;25928;51.062;13.752;2023-03-03T02:35:52;56.30;;;29.93;;
815;SDS011;25928;51.062;13.752;2023-03-03T02:43:26;50.20;;;29.50;;
815;SDS011;25928;51.062;13.752;2023-03-03T02:45:56;53.90;;;28.60;;
815;SDS011;25928;51.062;13.752;2023-03-03T02:48:21;56.13;;;28.87;;
815;SDS011;25928;51.062;13.752;2023-03-03T02:50:47;59.07;;;28.83;;
815;SDS011;25928;51.062;13.752;2023-03-03T02:53:13;53.47;;;28.20;;
815;SDS011;25928;51.062;13.752;2023-03-03T02:55:38;47.47;;;28.00;;
815;SDS011;25928;51.062;13.752;2023-03-03T02:58:04;64.57;;;29.87;;
815;SDS011;25928;51.062;13.752;2023-03-03T03:00:29;58.67;;;29.53;;
815;SDS011;25928;51.062;13.752;2023-03-03T03:02:56;54.10;;;29.57;;
815;SDS011;25928;51.062;13.752;2023-03-03T03:05:22;44.27;;;27.67;;
815;SDS011;25928;51.062;13.752;2023-03-03T03:07:48;52.70;;;28.47;;
815;SDS011;25928;51.062;13.752;2023-03-03T03:10:14;57.10;;;29.10;;
815;SDS011;25928;51.062;13.752;2023-03-03T03:12:40;45.63;;;26.23;;
815;SDS011;25928;51.062;13.752;2023-03-03T03:15:05;46.03;;;26.00;;
815;SDS011;25928;51.062;13.752;2023-03-03T03:17:34;50.30;;;27.47;;
815;SDS011;25928;51.062;13.752;2023-03-03T03:20:01;57.30;;;28.37;;
815;SDS011;25928;51.062;13.752;2023-03-03T03:22:26;57.23;;;26.83;;
815;SDS011;25928;51.062;13.752;2023-03-03T03:24:52;57.30;;;27.40;;
815;SDS011;25928;51.062;13.752;2023-03-03T03:27:18;45.57;;;25.97;;
815;SDS011;25928;51.062;13.752;2023-03-03T03:29:43;46.00;;;25.53;;
815;SDS011;25928;51.062;13.752;2023-03-03T03:32:09;49.77;;;26.27;;
815;SDS011;25928;51.062;13.752;2023-03-03T03:34:36;53.17;;;27.87;;
815;SDS011;25928;51.062;13.752;2023-03-03T03:37:02;42.33;;;23.97;;
815;SDS011;25928;51.062;13.752;2023-03-03T03:39:28;46.40;;;23.07;;
815;SDS011;25928;51.062;13.752;2023-03-03T03:41:53;47.47;;;26.10;;
815;SDS011;25928;51.062;13.752;2023-03-03T03:44:19;40.57;;;24.60;;
815;SDS011;25928;51.062;13.752;2023-03-03T03:46:44;48.33;;;24.17;;
815;SDS011;25928;51.062;13.752;2023-03-03T03:49:10;42.00;;;25.40;;
815;SDS011;25928;51.062;13.752;2023-03-03T03:51:36;54.53;;;27.23;;
815;SDS011;25928;51.062;13.752;2023-03-03T03:54:05;45.73;;;24.03;;
815;SDS011;25928;51.062;13.752;2023-03-03T03:56:30;49.40;;;25.93;;
815;SDS011;25928;51.062;13.752;2023-03-03T03:58:56;41.93;;;24.47;;
815;SDS011;25928;51.062;13.752;2023-03-03T04:01:22;41.10;;;23.80;;
815;SDS011;25928;51.062;13.752;2023-03-03T04:03:48;43.07;;;24.83;;
815;SDS011;25928;51.062;13.752;2023-03-03T04:06:13;40.67;;;26.20;;
815;SDS011;25928;51.062;13.752;2023-03-03T04:08:39;43.07;;;23.77;;
815;SDS011;25928;51.062;13.752;2023-03-03T04:11:04;39.53;;;22.97;;
815;SDS011;25928;51.062;13.752;2023-03-03T04:13:30;39.67;;;21.93;;
815;SDS011;25928;51.062;13.752;2023-03-03T04:15:59;44.67;;;26.27;;
815;SDS011;25928;51.062;13.752;2023-03-03T04:18:27;50.30;;;25.67;;
815;SDS011;25928;51.062;13.752;2023-03-03T04:20:53;45.70;;;24.23;;
815;SDS011;25928;51.062;13.752;2023-03-03T04:23:19;39.97;;;23.80;;
815;SDS011;25928;51.062;13.752;2023-03-03T04:25:46;45.70;;;23.77;;
815;SDS011;25928;51.062;13.752;2023-03-03T04:28:12;46.33;;;24.20;;
815;SDS011;25928;51.062;13.752;2023-03-03T04:30:38;39.97;;;22.13;;
815;SDS011;25928;51.062;13.752;2023-03-03T04:33:04;36.73;;;21.90;;
815;SDS011;25928;51.062;13.752;2023-03-03T04:35:30;36.43;;;21.40;;
815;SDS011;25928;51.062;13.752;2023-03-03T04:37:55;47.10;;;24.30;;
815;SDS011;25928;51.062;13.752;2023-03-03T04:40:21;38.60;;;22.60;;
815;SDS011;25928;51.062;13.752;2023-03-03T04:42:47;40.77;;;20.77;;
815;SDS011;25928;51.062;13.752;2023-03-03T04:45:12;36.80;;;21.40;;
815;SDS011;25928;51.062;13.752;2023-03-03T04:47:38;41.57;;;22.40;;
815;SDS011;25928;51.062;13.752;2023-03-03T04:50:04;46.30;;;22.97;;
815;SDS011;25928;51.062;13.752;2023-03-03T04:52:30;37.40;;;21.80;;
815;SDS011;25928;51.062;13.752;2023-03-03T04:54:57;37.00;;;21.50;;
815;SDS011;25928;51.062;13.752;2023-03-03T04:57:22;41.20;;;20.97;;
815;SDS011;25928;51.062;13.752;2023-03-03T04:59:48;42.00;;;22.53;;
815;SDS011;25928;51.062;13.752;2023-03-03T05:02:13;38.83;;;21.50;;
815;SDS011;25928;51.062;13.752;2023-03-03T05:04:39;44.43;;;21.80;;
815;SDS011;25928;51.062;13.752;2023-03-03T05:07:05;42.03;;;21.03;;
815;SDS011;25928;51.062;13.752;2023-03-03T05:09:30;41.67;;;24.00;;
815;SDS011;25928;51.062;13.752;2023-03-03T05:11:56;37.17;;;19.60;;
815;SDS011;25928;51.062;13.752;2023-03-03T05:14:22;37.43;;;19.57;;
815;SDS011;25928;51.062;13.752;2023-03-03T05:16:47;37.73;;;19.40;;
815;SDS011;25928;51.062;13.752;2023-03-03T05:19:13;38.37;;;21.27;;
815;SDS011;25928;51.062;13.752;2023-03-03T05:21:39;39.63;;;20.33;;
815;SDS011;25928;51.062;13.752;2023-03-03T05:24:08;39.67;;;20.23;;
815;SDS011;25928;51.062;13.752;2023-03-03T05:26:34;37.30;;;19.07;;
815;SDS011;25928;51.062;13.752;2023-03-03T05:29:00;35.80;;;20.67;;
815;SDS011;25928;51.062;13.752;2023-03-03T05:31:25;43.73;;;21.23;;
815;SDS011;25928;51.062;13.752;2023-03-03T05:33:52;42.67;;;22.33;;
815;SDS011;25928;51.062;13.752;2023-03-03T05:36:18;38.10;;;18.73;;
815;SDS011;25928;51.062;13.752;2023-03-03T05:38:44;42.13;;;19.20;;
815;SDS011;25928;51.062;13.752;2023-03-03T05:41:09;50.60;;;24.30;;
815;SDS011;25928;51.062;13.752;2023-03-03T05:43:35;42.07;;;19.60;;
815;SDS011;25928;51.062;13.752;2023-03-03T05:46:01;46.53;;;22.90;;
815;SDS011;25928;51.062;13.752;2023-03-03T05:48:27;52.83;;;21.90;;
815;SDS011;25928;51.062;13.752;2023-03-03T05:50:53;41.50;;;21.40;;
815;SDS011;25928;51.062;13.752;2023-03-03T05:53:21;42.60;;;21.93;;
815;SDS011;25928;51.062;13.752;2023-03-03T05:55:47;45.90;;;20.33;;
815;SDS011;25928;51.062;13.752;2023-03-03T05:58:13;48.97;;;22.23;;
815;SDS011;25928;51.062;13.752;2023-03-03T06:00:39;45.73;;;22.00;;
815;SDS011;25928;51.062;13.752;2023-03-03T06:03:04;46.53;;;21.27;;
815;SDS011;25928;51.062;13.752;2023-03-03T06:05:30;44.50;;;21.90;;
815;SDS011;25928;51.062;13.752;2023-03-03T06:07:55;49.03;;;22.10;;
815;SDS011;25928;51.062;13.752;2023-03-03T06:10:21;48.70;;;23.33;;
815;SDS011;25928;51.062;13.752;2023-03-03T06:12:47;51.40;;;22.00;;
815;SDS011;25928;51.062;13.752;2023-03-03T06:15:12;45.33;;;19.97;;
815;SDS011;25928;51.062;13.752;2023-03-03T06:17:38;46.37;;;21.63;;
815;SDS011;25928;51.062;13.752;2023-03-03T06:20:04;50.80;;;22.07;;
815;SDS011;25928;51.062;13.752;2023-03-03T06:22:30;49.40;;;22.63;;
815;SDS011;25928;51.062;13.752;2023-03-03T06:24:56;52.03;;;22.47;;
815;SDS011;25928;51.062;13.752;2023-03-03T06:27:22;56.80;;;23.03;;
815;SDS011;25928;51.062;13.752;2023-03-03T06:29:48;57.70;;;24.20;;
815;SDS011;25928;51.062;13.752;2023-03-03T06:32:13;60.60;;;22.17;;
815;SDS011;25928;51.062;13.752;2023-03-03T06:34:39;60.97;;;24.20;;
815;SDS011;25928;51.062;13.752;2023-03-03T06:40:27;47.57;;;21.43;;
815;SDS011;25928;51.062;13.752;2023-03-03T06:42:53;48.40;;;23.50;;
815;SDS011;25928;51.062;13.752;2023-03-03T06:45:18;46.77;;;21.87;;
815;SDS011;25928;51.062;13.752;2023-03-03T06:47:44;52.87;;;23.57;;
815;SDS011;25928;51.062;13.752;2023-03-03T06:50:10;43.30;;;21.80;;
815;SDS011;25928;51.062;13.752;2023-03-03T06:52:36;41.97;;;21.87;;
815;SDS011;25928;51.062;13.752;2023-03-03T06:55:09;41.90;;;20.77;;
815;SDS011;25928;51.062;13.752;2023-03-03T06:57:37;45.73;;;22.10;;
815;SDS011;25928;51.062;13.752;2023-03-03T07:02:53;42.60;;;21.63;;
815;SDS011;25928;51.062;13.752;2023-03-03T07:05:24;53.83;;;22.10;;
815;SDS011;25928;51.062;13.752;2023-03-03T07:07:53;46.30;;;19.83;;
815;SDS011;25928;51.062;13.752;2023-03-03T07:10:24;41.77;;;20.30;;
815;SDS011;25928;51.062;13.752;2023-03-03T07:12:51;36.83;;;18.53;;
815;SDS011;25928;51.062;13.752;2023-03-03T07:15:22;45.63;;;20.20;;
815;SDS011;25928;51.062;13.752;2023-03-03T07:17:51;50.30;;;18.53;;
815;SDS011;25928;51.062;13.752;2023-03-03T07:20:32;34.80;;;19.03;;
815;SDS011;25928;51.062;13.752;2023-03-03T07:23:01;41.60;;;16.73;;
815;SDS011;25928;51.062;13.752;2023-03-03T07:25:44;37.27;;;19.27;;
815;SDS011;25928;51.062;13.752;2023-03-03T07:28:14;37.33;;;16.83;;
815;SDS011;25928;51.062;13.752;2023-03-03T07:30:40;37.57;;;18.10;;
815;SDS011;25928;51.062;13.752;2023-03-03T07:33:07;38.27;;;20.47;;
815;SDS011;25928;51.062;13.752;2023-03-03T07:36:00;41.23;;;18.87;;
815;SDS011;25928;51.062;13.752;2023-03-03T07:40:56;34.67;;;18.20;;
815;SDS011;25928;51.062;13.752;2023-03-03T07:43:33;36.33;;;16.77;;
815;SDS011;25928;51.062;13.752;2023-03-03T07:48:35;38.63;;;20.00;;
815;SDS011;25928;51.062;13.752;2023-03-03T07:51:10;42.43;;;20.07;;
815;SDS011;25928;51.062;13.752;2023-03-03T07:53:43;33.90;;;17.33;;
815;SDS011;25928;51.062;13.752;2023-03-03T07:56:24;35.50;;;17.50;;
815;SDS011;25928;51.062;13.752;2023-03-03T07:58:53;35.47;;;16.07;;
815;SDS011;25928;51.062;13.752;2023-03-03T08:04:18;37.20;;;17.33;;
815;SDS011;25928;51.062;13.752;2023-03-03T08:07:02;31.77;;;15.43;;
815;SDS011;25928;51.062;13.752;2023-03-03T08:14:35;29.70;;;16.10;;
815;SDS011;25928;51.062;13.752;2023-03-03T08:17:06;30.63;;;16.30;;
815;SDS011;25928;51.062;13.752;2023-03-03T08:19:38;30.50;;;15.80;;
815;SDS011;25928;51.062;13.752;2023-03-03T08:22:14;27.80;;;15.00;;
815;SDS011;25928;51.062;13.752;2023-03-03T08:24:48;32.30;;;15.70;;
815;SDS011;25928;51.062;13.752;2023-03-03T08:27:13;27.87;;;13.90;;
815;SDS011;25928;51.062;13.752;2023-03-03T08:29:39;32.07;;;15.10;;
815;SDS011;25928;51.062;13.752;2023-03-03T08:32:04;29.67;;;14.83;;
815;SDS011;25928;51.062;13.752;2023-03-03T08:34:30;20.47;;;13.50;;
815;SDS011;25928;51.062;13.752;2023-03-03T08:36:56;25.63;;;14.83;;
815;SDS011;25928;51.062;13.752;2023-03-03T08:39:22;26.70;;;13.20;;
815;SDS011;25928;51.062;13.752;2023-03-03T08:41:48;25.90;;;13.77;;
815;SDS011;25928;51.062;13.752;2023-03-03T08:44:14;26.73;;;12.77;;
815;SDS011;25928;51.062;13.752;2023-03-03T08:46:39;22.43;;;13.40;;
815;SDS011;25928;51.062;13.752;2023-03-03T08:49:05;24.33;;;14.30;;
815;SDS011;25928;51.062;13.752;2023-03-03T08:51:31;25.40;;;14.30;;
815;SDS011;25928;51.062;13.752;2023-03-03T08:53:58;25.03;;;14.00;;
815;SDS011;25928;51.062;13.752;2023-03-03T08:56:24;23.00;;;13.00;;
815;SDS011;25928;51.062;13.752;2023-03-03T08:58:50;22.57;;;12.60;;
815;SDS011;25928;51.062;13.752;2023-03-03T09:01:15;20.93;;;12.80;;
815;SDS011;25928;51.062;13.752;2023-03-03T09:03:41;24.83;;;13.17;;
815;SDS011;25928;51.062;13.752;2023-03-03T09:06:08;22.70;;;11.93;;
815;SDS011;25928;51.062;13.752;2023-03-03T09:08:33;25.00;;;13.97;;
815;SDS011;25928;51.062;13.752;2023-03-03T09:10:59;23.17;;;11.87;;
815;SDS011;25928;51.062;13.752;2023-03-03T09:13:27;20.20;;;12.60;;
815;SDS011;25928;51.062;13.752;2023-03-03T09:15:54;20.87;;;10.37;;
815;SDS011;25928;51.062;13.752;2023-03-03T09:18:29;21.80;;;12.57;;
815;SDS011;25928;51.062;13.752;2023-03-03T09:20:59;18.10;;;10.83;;
815;SDS011;25928;51.062;13.752;2023-03-03T09:23:27;20.53;;;12.37;;
815;SDS011;25928;51.062;13.752;2023-03-03T09:25:56;19.43;;;11.83;;
815;SDS011;25928;51.062;13.752;2023-03-03T09:28:37;20.17;;;11.30;;
815;SDS011;25928;51.062;13.752;2023-03-03T09:31:03;16.73;;;10.97;;
815;SDS011;25928;51.062;13.752;2023-03-03T09:33:48;15.00;;;10.10;;
815;SDS011;25928;51.062;13.752;2023-03-03T09:36:26;15.83;;;9.20;;
815;SDS011;25928;51.062;13.752;2023-03-03T09:38:54;14.37;;;9.13;;
815;SDS011;25928;51.062;13.752;2023-03-03T09:44:35;16.77;;;9.40;;
815;SDS011;25928;51.062;13.752;2023-03-03T10:01:37;13.90;;;8.30;;
815;SDS011;25928;51.062;13.752;2023-03-03T10:04:10;11.30;;;7.40;;
815;SDS011;25928;51.062;13.752;2023-03-03T10:06:52;14.83;;;7.53;;
815;SDS011;25928;51.062;13.752;2023-03-03T10:12:02;12.70;;;8.13;;
815;SDS011;25928;51.062;13.752;2023-03-03T10:22:51;11.43;;;7.17;;
815;SDS011;25928;51.062;13.752;2023-03-03T10:25:44;12.27;;;7.10;;
815;SDS011;25928;51.062;13.752;2023-03-03T10:33:41;9.23;;;6.30;;
815;SDS011;25928;51.062;13.752;2023-03-03T10:36:31;10.47;;;7.13;;
815;SDS011;25928;51.062;13.752;2023-03-03T10:44:23;13.60;;;8.30;;
815;SDS011;25928;51.062;13.752;2023-03-03T10:49:54;11.10;;;7.03;;
815;SDS011;25928;51.062;13.752;2023-03-03T10:55:20;9.80;;;6.53;;
815;SDS011;25928;51.062;13.752;2023-03-03T11:09:16;10.20;;;6.00;;
815;SDS011;25928;51.062;13.752;2023-03-03T11:11:52;7.73;;;5.50;;
815;SDS011;25928;51.062;13.752;2023-03-03T11:14:28;10.20;;;6.67;;
815;SDS011;25928;51.062;13.752;2023-03-03T11:20:26;9.37;;;6.37;;
815;SDS011;25928;51.062;13.752;2023-03-03T11:25:43;11.40;;;7.13;;
815;SDS011;25928;51.062;13.752;2023-03-03T11:28:29;8.80;;;6.10;;
815;SDS011;25928;51.062;13.752;2023-03-03T11:31:20;10.70;;;7.10;;
815;SDS011;25928;51.062;13.752;2023-03-03T11:33:52;11.30;;;7.00;;
815;SDS011;25928;51.062;13.752;2023-03-03T11:36:22;11.03;;;7.07;;
815;SDS011;25928;51.062;13.752;2023-03-03T11:44:12;10.93;;;8.00;;
815;SDS011;25928;51.062;13.752;2023-03-03T11:46:49;13.70;;;7.90;;
815;SDS011;25928;51.062;13.752;2023-03-03T11:52:21;9.73;;;6.37;;
815;SDS011;25928;51.062;13.752;2023-03-03T11:57:43;7.60;;;5.97;;
815;SDS011;25928;51.062;13.752;2023-03-03T12:11:29;8.93;;;6.10;;
815;SDS011;25928;51.062;13.752;2023-03-03T12:13:59;6.93;;;5.23;;
815;SDS011;25928;51.062;13.752;2023-03-03T12:16:37;7.97;;;5.27;;
815;SDS011;25928;51.062;13.752;2023-03-03T12:21:54;7.67;;;4.20;;
815;SDS011;25928;51.062;13.752;2023-03-03T12:30:00;10.67;;;5.43;;
815;SDS011;25928;51.062;13.752;2023-03-03T12:35:05;6.40;;;4.93;;
815;SDS011;25928;51.062;13.752;2023-03-03T12:38:14;6.80;;;4.20;;
815;SDS011;25928;51.062;13.752;2023-03-03T12:43:30;6.53;;;3.97;;
815;SDS011;25928;51.062;13.752;2023-03-03T12:46:04;5.47;;;3.87;;
815;SDS011;25928;51.062;13.752;2023-03-03T12:48:37;6.90;;;4.73;;
815;SDS011;25928;51.062;13.752;2023-03-03T12:53:47;4.80;;;3.50;;
815;SDS011;25928;51.062;13.752;2023-03-03T12:59:17;6.27;;;3.83;;
815;SDS011;25928;51.062;13.752;2023-03-03T13:01:59;7.50;;;4.30;;
815;SDS011;25928;51.062;13.752;2023-03-03T13:04:51;5.90;;;4.37;;
815;SDS011;25928;51.062;13.752;2023-03-03T13:10:54;7.57;;;3.93;;
815;SDS011;25928;51.062;13.752;2023-03-03T13:14:27;6.00;;;4.07;;
815;SDS011;25928;51.062;13.752;2023-03-03T13:16:29;6.00;;;4.43;;
815;SDS011;25928;51.062;13.752;2023-03-03T13:19:00;8.90;;;5.87;;
815;SDS011;25928;51.062;13.752;2023-03-03T13:23:58;8.70;;;5.60;;
815;SDS011;25928;51.062;13.752;2023-03-03T13:31:54;10.90;;;6.70;;
815;SDS011;25928;51.062;13.752;2023-03-03T13:39:59;11.20;;;7.03;;
815;SDS011;25928;51.062;13.752;2023-03-03T13:48:31;8.23;;;5.63;;
815;SDS011;25928;51.062;13.752;2023-03-03T13:51:17;8.30;;;5.70;;
815;SDS011;25928;51.062;13.752;2023-03-03T13:55:00;10.37;;;6.20;;
815;SDS011;25928;51.062;13.752;2023-03-03T14:06:21;11.53;;;6.00;;
815;SDS011;25928;51.062;13.752;2023-03-03T14:12:20;10.40;;;6.87;;
815;SDS011;25928;51.062;13.752;2023-03-03T14:15:15;8.90;;;5.53;;
815;SDS011;25928;51.062;13.752;2023-03-03T14:18:13;8.67;;;5.70;;
815;SDS011;25928;51.062;13.752;2023-03-03T14:20:50;7.90;;;5.83;;
815;SDS011;25928;51.062;13.752;2023-03-03T14:23:24;10.70;;;6.20;;
815;SDS011;25928;51.062;13.752;2023-03-03T14:26:09;12.20;;;8.60;;
815;SDS011;25928;51.062;13.752;2023-03-03T14:28:40;11.63;;;6.87;;
815;SDS011;25928;51.062;13.752;2023-03-03T14:31:23;10.23;;;6.33;;
815;SDS011;25928;51.062;13.752;2023-03-03T14:33:59;12.00;;;6.47;;
815;SDS011;25928;51.062;13.752;2023-03-03T14:36:31;13.00;;;7.60;;
815;SDS011;25928;51.062;13.752;2023-03-03T14:39:00;8.93;;;6.67;;
815;SDS011;25928;51.062;13.752;2023-03-03T14:41:33;12.30;;;6.40;;
815;SDS011;25928;51.062;13.752;2023-03-03T14:49:48;10.10;;;5.90;;
815;SDS011;25928;51.062;13.752;2023-03-03T14:54:41;12.83;;;6.70;;
815;SDS011;25928;51.062;13.752;2023-03-03T14:57:14;9.27;;;5.90;;
815;SDS011;25928;51.062;13.752;2023-03-03T14:59:53;10.90;;;5.70;;
815;SDS011;25928;51.062;13.752;2023-03-03T15:04:45;13.33;;;7.00;;
815;SDS011;25928;51.062;13.752;2023-03-03T15:07:26;9.60;;;6.60;;
815;SDS011;25928;51.062;13.752;2023-03-03T15:09:58;10.17;;;6.40;;
815;SDS011;25928;51.062;13.752;2023-03-03T15:12:34;9.77;;;6.30;;
815;SDS011;25928;51.062;13.752;2023-03-03T15:17:40;12.80;;;7.33;;
815;SDS011;25928;51.062;13.752;2023-03-03T15:22:40;10.10;;;6.13;;
815;SDS011;25928;51.062;13.752;2023-03-03T15:28:03;10.40;;;6.67;;
815;SDS011;25928;51.062;13.752;2023-03-03T15:41:27;14.33;;;6.60;;
815;SDS011;25928;51.062;13.752;2023-03-03T15:44:18;13.33;;;7.30;;
815;SDS011;25928;51.062;13.752;2023-03-03T15:47:03;15.70;;;8.70;;
815;SDS011;25928;51.062;13.752;2023-03-03T16:00:41;16.10;;;10.10;;
815;SDS011;25928;51.062;13.752;2023-03-03T16:03:19;17.17;;;9.90;;
815;SDS011;25928;51.062;13.752;2023-03-03T16:05:55;18.07;;;9.93;;
815;SDS011;25928;51.062;13.752;2023-03-03T16:08:28;16.63;;;9.27;;
815;SDS011;25928;51.062;13.752;2023-03-03T16:13:39;21.33;;;11.97;;
815;SDS011;25928;51.062;13.752;2023-03-03T16:24:46;24.03;;;13.70;;
815;SDS011;25928;51.062;13.752;2023-03-03T16:27:27;26.37;;;13.13;;
815;SDS011;25928;51.062;13.752;2023-03-03T16:32:55;32.33;;;15.40;;
815;SDS011;25928;51.062;13.752;2023-03-03T16:35:30;28.17;;;15.13;;
815;SDS011;25928;51.062;13.752;2023-03-03T16:38:02;35.63;;;19.40;;
815;SDS011;25928;51.062;13.752;2023-03-03T16:40:37;29.23;;;15.70;;
815;SDS011;25928;51.062;13.752;2023-03-03T16:46:01;26.50;;;12.87;;
815;SDS011;25928;51.062;13.752;2023-03-03T16:48:46;20.30;;;12.53;;
815;SDS011;25928;51.062;13.752;2023-03-03T16:53:56;28.93;;;15.40;;
815;SDS011;25928;51.062;13.752;2023-03-03T16:57:18;29.40;;;16.30;;
815;SDS011;25928;51.062;13.752;2023-03-03T17:00:01;32.00;;;15.67;;
815;SDS011;25928;51.062;13.752;2023-03-03T17:10:27;27.60;;;16.17;;
815;SDS011;25928;51.062;13.752;2023-03-03T17:29:53;31.47;;;17.20;;
815;SDS011;25928;51.062;13.752;2023-03-03T17:37:35;30.70;;;15.27;;
815;SDS011;25928;51.062;13.752;2023-03-03T17:43:16;38.10;;;17.47;;
815;SDS011;25928;51.062;13.752;2023-03-03T17:46:26;29.80;;;15.83;;
815;SDS011;25928;51.062;13.752;2023-03-03T17:49:08;34.83;;;17.37;;
815;SDS011;25928;51.062;13.752;2023-03-03T17:58:05;35.23;;;19.93;;
815;SDS011;25928;51.062;13.752;2023-03-03T18:00:49;35.17;;;19.00;;
815;SDS011;25928;51.062;13.752;2023-03-03T18:11:39;36.90;;;18.90;;
815;SDS011;25928;51.062;13.752;2023-03-03T18:14:41;32.90;;;18.70;;
815;SDS011;25928;51.062;13.752;2023-03-03T18:17:25;39.53;;;20.03;;
815;SDS011;25928;51.062;13.752;2023-03-03T18:20:16;37.17;;;18.23;;
815;SDS011;25928;51.062;13.752;2023-03-03T18:22:52;37.43;;;19.03;;
815;SDS011;25928;51.062;13.752;2023-03-03T18:28:35;46.83;;;22.10;;
815;SDS011;25928;51.062;13.752;2023-03-03T18:31:14;39.90;;;20.70;;
815;SDS011;25928;51.062;13.752;2023-03-03T18:36:35;38.93;;;20.27;;
815;SDS011;25928;51.062;13.752;2023-03-03T18:39:04;35.70;;;19.40;;
815;SDS011;25928;51.062;13.752;2023-03-03T18:41:34;38.83;;;20.77;;
815;SDS011;25928;51.062;13.752;2023-03-03T18:44:32;34.13;;;18.80;;
815;SDS011;25928;51.062;13.752;2023-03-03T18:46:57;35.83;;;18.90;;
815;SDS011;25928;51.062;13.752;2023-03-03T18:52:27;35.50;;;19.47;;
815;SDS011;25928;51.062;13.752;2023-03-03T18:57:35;37.83;;;20.70;;
815;SDS011;25928;51.062;13.752;2023-03-03T19:00:14;39.90;;;19.57;;
815;SDS011;25928;51.062;13.752;2023-03-03T19:03:07;41.90;;;20.17;;
815;SDS011;25928;51.062;13.752;2023-03-03T19:05:58;39.50;;;19.77;;
815;SDS011;25928;51.062;13.752;2023-03-03T19:11:26;42.80;;;20.70;;
815;SDS011;25928;51.062;13.752;2023-03-03T19:14:35;39.87;;;18.70;;
815;SDS011;25928;51.062;13.752;2023-03-03T19:16:56;35.83;;;20.60;;
815;SDS011;25928;51.062;13.752;2023-03-03T19:19:24;38.57;;;19.63;;
815;SDS011;25928;51.062;13.752;2023-03-03T19:24:59;37.67;;;19.53;;
815;SDS011;25928;51.062;13.752;2023-03-03T19:39:09;39.40;;;18.30;;
815;SDS011;25928;51.062;13.752;2023-03-03T19:41:58;41.30;;;18.33;;
815;SDS011;25928;51.062;13.752;2023-03-03T19:47:53;38.80;;;18.83;;
815;SDS011;25928;51.062;13.752;2023-03-03T19:53:00;37.40;;;19.07;;
815;SDS011;25928;51.062;13.752;2023-03-03T19:58:31;39.87;;;18.50;;
815;SDS011;25928;51.062;13.752;2023-03-03T20:02:14;38.63;;;18.17;;
815;SDS011;25928;51.062;13.752;2023-03-03T20:04:43;40.07;;;19.67;;
815;SDS011;25928;51.062;13.752;2023-03-03T20:07:25;33.90;;;17.57;;
815;SDS011;25928;51.062;13.752;2023-03-03T20:10:05;40.13;;;18.60;;
815;SDS011;25928;51.062;13.752;2023-03-03T20:21:10;46.03;;;19.20;;
815;SDS011;25928;51.062;13.752;2023-03-03T20:23:52;39.33;;;19.20;;
815;SDS011;25928;51.062;13.752;2023-03-03T20:32:29;40.47;;;17.27;;
815;SDS011;25928;51.062;13.752;2023-03-03T20:45:38;32.73;;;17.50;;
815;SDS011;25928;51.062;13.752;2023-03-03T20:51:38;38.90;;;18.40;;
815;SDS011;25928;51.062;13.752;2023-03-03T20:54:42;32.70;;;15.80;;
815;SDS011;25928;51.062;13.752;2023-03-03T21:00:08;35.87;;;17.50;;